Time;durP1;ratioP1;P1;durP2;ratioP2;P2;SDS_P1;SDS_P2;PMS_P1;PMS_P2;Temp;Humidity;BMP_temperature;BMP_pressure;BME280_temperature;BME280_humidity;BME280_pressure;Samples;Min_cycle;Max_cycle;Signal;HPM_P1;HPM_P2
2022/09/07 00:02:13;;;;;;;8.20;6.28;;;19.80;99.90;;;;;;5015528;28;20092;-86
2022/09/07 00:04:41;;;;;;;15.55;6.60;;;19.80;99.90;;;;;;4981839;28;20050;-89
2022/09/07 00:07:07;;;;;;;13.02;6.72;;;19.80;99.90;;;;;;4998177;28;20419;-86
2022/09/07 00:09:32;;;;;;;12.10;6.03;;;19.80;99.90;;;;;;4998023;28;20046;-86
2022/09/07 00:11:58;;;;;;;9.50;5.95;;;19.70;99.90;;;;;;4998170;28;20450;-88
2022/09/07 00:14:24;;;;;;;7.82;5.40;;;19.70;99.90;;;;;;4981933;28;20046;-87
2022/09/07 00:16:49;;;;;;;8.15;5.95;;;19.60;99.90;;;;;;4981942;28;20046;-87
2022/09/07 00:19:15;;;;;;;7.43;5.45;;;19.70;99.90;;;;;;4994002;28;20054;-87
2022/09/07 00:21:41;;;;;;;7.82;6.38;;;19.70;99.90;;;;;;4978662;28;20140;-86
2022/09/07 00:24:06;;;;;;;11.55;7.40;;;19.70;99.90;;;;;;4962481;28;20046;-84
2022/09/07 00:26:32;;;;;;;11.32;7.95;;;19.60;99.90;;;;;;4946170;28;20113;-83
2022/09/07 00:28:59;;;;;;;9.60;7.18;;;19.50;99.90;;;;;;4978372;28;20090;-86
2022/09/07 00:31:26;;;;;;;19.65;7.35;;;19.30;99.90;;;;;;4978222;28;20053;-86
2022/09/07 00:33:53;;;;;;;12.38;7.05;;;19.20;99.90;;;;;;4977004;28;20046;-86
2022/09/07 00:36:20;;;;;;;9.35;8.18;;;19.10;99.90;;;;;;4978440;28;20046;-84
2022/09/07 00:38:46;;;;;;;12.75;8.57;;;19.10;99.90;;;;;;4978006;28;20081;-85
2022/09/07 00:41:13;;;;;;;16.02;10.05;;;19.00;99.90;;;;;;4962124;28;20046;-86
2022/09/07 00:43:42;;;;;;;24.35;11.02;;;18.90;99.90;;;;;;4978218;28;20042;-86
2022/09/07 00:46:16;;;;;;;31.77;15.07;;;18.70;99.90;;;;;;4961579;28;20053;-85
2022/09/07 00:48:59;;;;;;;62.92;19.65;;;18.50;99.90;;;;;;4977600;28;20047;-82
2022/09/07 00:51:38;;;;;;;44.05;19.15;;;18.10;99.90;;;;;;4995417;28;20046;-85
2022/09/07 00:54:12;;;;;;;79.20;33.78;;;18.00;99.90;;;;;;4978037;28;20097;-84
2022/09/07 00:56:42;;;;;;;121.72;41.30;;;17.90;99.90;;;;;;4977724;28;20124;-83
2022/09/07 00:59:11;;;;;;;78.47;31.80;;;17.90;99.90;;;;;;4977845;28;20411;-83
2022/09/07 01:01:38;;;;;;;188.20;50.35;;;17.80;99.90;;;;;;4977844;28;20042;-83
2022/09/07 01:04:04;;;;;;;160.35;51.20;;;17.80;99.90;;;;;;4977666;28;20042;-82
2022/09/07 01:06:35;;;;;;;205.13;54.78;;;17.80;99.90;;;;;;4977481;28;20500;-82
2022/09/07 01:09:14;;;;;;;147.25;49.05;;;17.80;99.90;;;;;;4977491;28;20057;-83
2022/09/07 01:11:42;;;;;;;201.45;52.65;;;17.80;99.90;;;;;;4994738;28;20532;-83
2022/09/07 01:14:13;;;;;;;311.95;69.85;;;17.80;99.90;;;;;;4994648;28;20050;-83
2022/09/07 01:16:44;;;;;;;41.67;24.58;;;17.80;99.90;;;;;;4977598;28;20038;-84
2022/09/07 01:19:42;;;;;;;105.85;41.22;;;17.90;99.90;;;;;;5003752;28;20468;-86
2022/09/07 01:22:45;;;;;;;71.20;29.67;;;17.80;99.90;;;;;;4981153;28;20062;-85
2022/09/07 01:25:46;;;;;;;189.93;49.30;;;17.70;99.90;;;;;;4980490;28;20038;-89
2022/09/07 01:28:23;;;;;;;82.90;31.98;;;17.70;99.90;;;;;;4966016;28;20080;-88
2022/09/07 01:31:00;;;;;;;58.60;31.27;;;17.60;99.90;;;;;;5014113;28;20046;-85
2022/09/07 01:33:42;;;;;;;98.30;42.05;;;17.60;99.90;;;;;;5014417;28;20541;-84
2022/09/07 01:36:22;;;;;;;87.03;39.63;;;17.60;99.90;;;;;;5013841;28;20053;-90
2022/09/07 01:38:51;;;;;;;236.07;58.97;;;17.60;99.90;;;;;;4980751;28;20407;-85
2022/09/07 01:41:25;;;;;;;96.22;40.90;;;17.50;99.90;;;;;;5013912;28;20054;-86
2022/09/07 01:44:05;;;;;;;83.13;35.38;;;17.50;99.90;;;;;;5013899;28;20458;-86
2022/09/07 01:47:04;;;;;;;62.60;32.08;;;17.40;99.90;;;;;;5013607;28;20042;-86
2022/09/07 01:50:10;;;;;;;76.13;36.20;;;17.50;99.90;;;;;;4996106;28;20046;-86
2022/09/07 01:52:57;;;;;;;76.35;37.53;;;17.40;99.90;;;;;;5013965;28;20077;-86
2022/09/07 01:55:26;;;;;;;36.38;22.98;;;17.40;99.90;;;;;;4980536;28;20042;-88
2022/09/07 01:58:03;;;;;;;116.38;47.30;;;17.40;99.90;;;;;;4996226;28;20156;-87
2022/09/07 02:00:30;;;;;;;62.20;34.10;;;17.30;99.90;;;;;;5013692;28;20058;-84
2022/09/07 02:03:07;;;;;;;89.13;40.47;;;17.30;99.90;;;;;;5013611;28;20096;-87
2022/09/07 02:05:40;;;;;;;118.22;43.42;;;17.30;99.90;;;;;;5013433;28;20037;-86
2022/09/07 02:08:26;;;;;;;45.80;27.05;;;17.30;99.90;;;;;;5013746;28;20076;-88
2022/09/07 02:11:19;;;;;;;42.47;25.10;;;17.30;99.90;;;;;;4996684;28;20046;-87
2022/09/07 02:13:57;;;;;;;44.47;25.83;;;17.20;99.90;;;;;;4995954;28;20046;-88
2022/09/07 02:16:26;;;;;;;39.67;24.65;;;17.20;99.90;;;;;;4996525;28;20452;-91
2022/09/07 02:19:09;;;;;;;115.53;41.13;;;17.20;99.90;;;;;;5012933;28;20148;-91
2022/09/07 02:21:40;;;;;;;40.33;21.83;;;17.20;99.90;;;;;;4980317;28;20073;-90
2022/09/07 02:24:12;;;;;;;37.33;22.92;;;17.20;99.90;;;;;;5013503;28;20053;-85
2022/09/07 02:26:39;;;;;;;112.85;41.60;;;17.20;99.90;;;;;;5013540;28;20049;-91
2022/09/07 02:29:06;;;;;;;63.33;28.08;;;17.10;99.90;;;;;;5013622;28;20061;-93
2022/09/07 02:31:32;;;;;;;58.28;26.10;;;17.20;99.90;;;;;;4996491;28;20046;-91
2022/09/07 02:34:00;;;;;;;74.03;34.17;;;17.20;99.90;;;;;;4996190;28;20122;-88
2022/09/07 02:36:30;;;;;;;98.90;38.47;;;17.10;99.90;;;;;;5013448;28;20045;-91
2022/09/07 02:38:55;;;;;;;56.60;28.67;;;17.20;99.90;;;;;;5013223;28;20472;-89
2022/09/07 02:41:35;;;;;;;55.83;31.20;;;17.10;99.90;;;;;;4995976;28;20088;-90
2022/09/07 02:44:06;;;;;;;101.82;42.47;;;17.10;99.90;;;;;;5013443;28;20140;-89
2022/09/07 02:47:19;;;;;;;100.80;34.50;;;17.10;99.90;;;;;;5013247;28;20052;-91
2022/09/07 02:49:54;;;;;;;93.43;37.70;;;17.10;99.90;;;;;;4987037;28;20504;-91
2022/09/07 02:52:37;;;;;;;51.20;28.85;;;17.00;99.90;;;;;;4979774;28;20045;-90
2022/09/07 02:55:19;;;;;;;124.70;40.80;;;17.00;99.90;;;;;;4995978;28;20137;-90
2022/09/07 02:58:20;;;;;;;67.82;33.92;;;17.00;99.90;;;;;;4981119;28;20049;-89
2022/09/07 03:00:57;;;;;;;125.13;45.97;;;17.00;99.90;;;;;;4982559;28;20065;-91
2022/09/07 03:03:56;;;;;;;70.88;33.35;;;17.00;99.90;;;;;;5016909;28;20045;-91
2022/09/07 03:06:35;;;;;;;90.22;36.28;;;17.00;99.90;;;;;;4983385;28;20042;-90
2022/09/07 03:09:06;;;;;;;200.95;52.78;;;17.00;99.90;;;;;;5017208;28;20046;-91
2022/09/07 03:11:34;;;;;;;;;;;17.00;99.90;;;;;;5000163;28;20053;-92
2022/09/07 03:14:16;;;;;;;120.32;42.45;;;17.00;99.90;;;;;;5016726;28;19928;-90
2022/09/07 03:16:42;;;;;;;95.60;38.63;;;17.00;99.90;;;;;;4999115;28;20104;-92
2022/09/07 03:19:08;;;;;;;108.13;40.70;;;17.00;99.90;;;;;;4982807;28;20081;-90
2022/09/07 03:21:34;;;;;;;157.38;46.13;;;17.00;99.90;;;;;;5016793;28;20041;-91
2022/09/07 03:24:03;;;;;;;233.02;57.35;;;17.10;99.90;;;;;;4999546;28;20061;-92
2022/09/07 03:26:29;;;;;;;167.95;48.45;;;17.10;99.90;;;;;;5016644;28;20133;-92
2022/09/07 03:28:55;;;;;;;125.18;43.13;;;17.00;99.90;;;;;;4999268;28;20090;-93
2022/09/07 03:31:21;;;;;;;158.07;46.95;;;17.10;99.90;;;;;;4999424;28;20057;-91
2022/09/07 03:33:47;;;;;;;137.88;45.53;;;17.10;99.90;;;;;;4999563;28;20042;-92
2022/09/07 03:36:13;;;;;;;194.75;51.28;;;17.10;99.90;;;;;;5016916;28;20045;-91
2022/09/07 03:38:38;;;;;;;81.00;31.55;;;17.20;99.90;;;;;;4999195;28;20427;-92
2022/09/07 03:41:06;;;;;;;99.80;35.92;;;17.20;99.90;;;;;;4999472;28;20057;-91
2022/09/07 03:43:33;;;;;;;123.07;42.97;;;17.20;99.90;;;;;;4998731;28;20038;-90
2022/09/07 03:46:04;;;;;;;78.13;33.33;;;17.10;99.90;;;;;;4998876;28;20041;-91
2022/09/07 03:48:31;;;;;;;169.43;48.50;;;17.10;99.90;;;;;;4998794;28;20042;-90
2022/09/07 03:51:04;;;;;;;89.05;38.30;;;17.10;99.90;;;;;;5015662;28;20056;-90
2022/09/07 03:53:32;;;;;;;104.25;40.47;;;17.00;99.90;;;;;;5016530;28;20049;-93
2022/09/07 03:56:06;;;;;;;135.38;46.35;;;17.00;99.90;;;;;;5016037;28;20064;-90
2022/09/07 03:58:33;;;;;;;99.60;40.45;;;17.00;99.90;;;;;;5016163;28;20046;-90
2022/09/07 04:01:03;;;;;;;47.03;30.45;;;17.00;99.90;;;;;;4998725;28;20042;-90
2022/09/07 04:03:29;;;;;;;145.38;48.47;;;17.00;99.90;;;;;;4999166;28;20373;-91
2022/09/07 04:05:57;;;;;;;189.73;54.92;;;17.00;99.90;;;;;;4982341;28;20052;-91
2022/09/07 04:08:28;;;;;;;51.67;34.58;;;17.00;99.90;;;;;;4998060;28;20484;-89
2022/09/07 04:10:56;;;;;;;58.80;33.90;;;16.90;99.90;;;;;;5015946;28;20050;-89
2022/09/07 04:13:22;;;;;;;88.57;41.90;;;16.90;99.90;;;;;;4998125;28;20116;-90
2022/09/07 04:15:48;;;;;;;61.35;34.08;;;16.90;99.90;;;;;;5015521;28;20077;-90
2022/09/07 04:18:14;;;;;;;127.53;50.35;;;16.90;99.90;;;;;;5015285;28;20081;-91
2022/09/07 04:20:40;;;;;;;128.27;51.40;;;16.90;99.90;;;;;;5015102;28;20045;-85
2022/09/07 04:23:06;;;;;;;61.80;40.20;;;16.90;99.90;;;;;;5015143;28;20045;-90
2022/09/07 04:25:31;;;;;;;89.85;45.25;;;16.80;99.90;;;;;;4997958;28;20049;-88
2022/09/07 04:27:57;;;;;;;136.63;50.50;;;16.80;99.90;;;;;;4997976;28;20054;-90
2022/09/07 04:30:23;;;;;;;91.43;43.30;;;16.80;99.90;;;;;;4965547;28;20045;-90
2022/09/07 04:32:49;;;;;;;71.78;44.22;;;16.80;99.90;;;;;;4981827;28;20096;-90
2022/09/07 04:35:15;;;;;;;136.05;49.38;;;16.80;99.90;;;;;;4981440;28;20054;-90
2022/09/07 04:37:41;;;;;;;54.35;35.33;;;16.80;99.90;;;;;;5015013;28;20050;-92
2022/09/07 04:40:07;;;;;;;231.10;70.40;;;16.80;99.90;;;;;;5015290;28;20077;-91
2022/09/07 04:42:33;;;;;;;154.05;57.10;;;16.80;99.90;;;;;;4997692;28;20112;-91
2022/09/07 04:44:58;;;;;;;69.20;44.58;;;16.80;99.90;;;;;;5015174;28;20050;-92
2022/09/07 04:47:24;;;;;;;74.80;41.00;;;16.80;99.90;;;;;;4997476;28;20045;-88
2022/09/07 04:49:51;;;;;;;134.55;56.60;;;16.80;99.90;;;;;;4997250;28;20038;-91
2022/09/07 04:52:16;;;;;;;134.23;55.70;;;16.80;99.90;;;;;;5014668;28;20045;-90
2022/09/07 04:54:43;;;;;;;90.47;48.15;;;16.70;99.90;;;;;;5014705;28;20052;-90
2022/09/07 04:57:11;;;;;;;128.93;56.20;;;16.70;99.90;;;;;;5014853;28;20085;-90
2022/09/07 04:59:37;;;;;;;117.07;59.15;;;16.70;99.90;;;;;;4980999;28;20077;-87
2022/09/07 05:02:03;;;;;;;172.13;66.97;;;16.70;99.90;;;;;;5014226;28;20049;-87
2022/09/07 05:04:28;;;;;;;132.25;61.38;;;16.70;99.90;;;;;;5014392;28;20073;-90
2022/09/07 05:06:54;;;;;;;98.75;49.17;;;16.70;99.90;;;;;;5027923;28;20098;-86
2022/09/07 05:09:20;;;;;;;145.77;58.45;;;16.70;99.90;;;;;;5054361;28;20136;-90
2022/09/07 05:11:46;;;;;;;160.23;66.30;;;16.70;99.90;;;;;;5003495;28;20494;-89
2022/09/07 05:14:11;;;;;;;190.13;67.78;;;16.70;99.90;;;;;;5020124;28;20093;-90
2022/09/07 05:16:37;;;;;;;211.65;68.35;;;16.70;99.90;;;;;;5035393;28;20068;-89
2022/09/07 05:19:04;;;;;;;172.60;62.92;;;16.80;99.90;;;;;;4999674;28;20117;-89
2022/09/07 05:21:33;;;;;;;383.65;93.47;;;16.80;99.90;;;;;;5023053;28;20052;-89
2022/09/07 05:24:00;;;;;;;310.33;85.00;;;16.90;99.90;;;;;;5036247;28;20059;-89
2022/09/07 05:26:28;;;;;;;106.95;57.25;;;16.90;99.90;;;;;;5019615;28;20040;-89
2022/09/07 05:28:54;;;;;;;66.07;45.75;;;16.90;99.90;;;;;;5059746;28;20049;-89
2022/09/07 05:31:21;;;;;;;288.75;79.03;;;17.00;99.90;;;;;;5036030;28;20072;-90
2022/09/07 05:33:49;;;;;;;296.70;78.25;;;17.00;99.90;;;;;;5035644;28;20044;-90
2022/09/07 05:36:15;;;;;;;83.95;51.38;;;17.00;99.90;;;;;;5053346;28;20099;-90
2022/09/07 05:38:41;;;;;;;106.82;52.13;;;17.00;99.90;;;;;;5053367;28;20053;-88
2022/09/07 05:41:12;;;;;;;226.48;70.70;;;17.00;99.90;;;;;;5019529;28;20045;-89
2022/09/07 05:43:38;;;;;;;192.60;62.70;;;17.10;99.90;;;;;;5052568;28;20084;-91
2022/09/07 05:46:04;;;;;;;157.27;60.70;;;17.10;99.90;;;;;;5034243;28;20036;-89
2022/09/07 05:48:42;;;;;;;196.25;65.95;;;17.10;99.90;;;;;;5033847;28;20059;-89
2022/09/07 05:51:14;;;;;;;146.05;58.30;;;17.10;99.90;;;;;;5015083;28;20095;-92
2022/09/07 05:53:42;;;;;;;152.07;54.90;;;17.10;99.90;;;;;;5052101;28;20044;-91
2022/09/07 05:56:09;;;;;;;113.57;53.72;;;17.10;99.90;;;;;;5051400;28;20184;-89
2022/09/07 05:58:35;;;;;;;118.35;53.42;;;17.10;99.90;;;;;;5048780;28;20044;-92
2022/09/07 06:01:07;;;;;;;157.43;59.42;;;17.10;99.90;;;;;;5051301;28;20037;-91
2022/09/07 06:03:35;;;;;;;130.77;52.67;;;17.10;99.90;;;;;;5050846;28;20037;-88
2022/09/07 06:06:04;;;;;;;124.38;53.53;;;17.10;99.90;;;;;;5017203;28;20045;-89
2022/09/07 06:08:31;;;;;;;144.70;54.75;;;17.10;99.90;;;;;;5032735;28;20050;-89
2022/09/07 06:10:57;;;;;;;78.70;46.17;;;17.20;99.90;;;;;;5051243;28;20434;-92
2022/09/07 06:13:23;;;;;;;62.38;37.40;;;17.20;99.90;;;;;;5045193;28;20052;-87
2022/09/07 06:15:49;;;;;;;87.55;45.60;;;17.20;99.90;;;;;;5015853;28;20037;-90
2022/09/07 06:18:15;;;;;;;69.78;39.47;;;17.20;99.90;;;;;;5033656;28;20052;-92
2022/09/07 06:20:40;;;;;;;114.03;47.20;;;17.30;99.90;;;;;;5033278;28;20099;-93
2022/09/07 06:23:06;;;;;;;79.13;43.55;;;17.30;99.90;;;;;;5015521;28;20125;-94
2022/09/07 06:25:32;;;;;;;123.15;50.13;;;17.30;99.90;;;;;;5033309;28;20129;-91
2022/09/07 06:27:58;;;;;;;89.13;46.20;;;17.30;99.90;;;;;;5033374;28;20042;-84
2022/09/07 06:30:24;;;;;;;90.95;43.22;;;17.30;99.90;;;;;;5033300;28;20095;-90
2022/09/07 06:32:50;;;;;;;65.25;36.40;;;17.40;99.90;;;;;;5001291;28;20132;-90
2022/09/07 06:35:16;;;;;;;54.83;32.65;;;17.30;99.90;;;;;;5021151;28;20137;-87
2022/09/07 06:37:42;;;;;;;95.55;45.20;;;17.40;99.90;;;;;;5003581;28;20049;-92
2022/09/07 06:40:11;;;;;;;112.40;47.78;;;17.40;99.90;;;;;;5019562;28;20526;-93
2022/09/07 06:42:37;;;;;;;67.95;34.53;;;17.40;99.90;;;;;;5038272;28;20478;-93
2022/09/07 06:45:04;;;;;;;56.63;34.53;;;17.40;99.90;;;;;;5019862;28;20052;-91
2022/09/07 06:47:29;;;;;;;52.50;32.55;;;17.40;99.90;;;;;;5020178;28;20440;-90
2022/09/07 06:49:55;;;;;;;59.47;34.53;;;17.40;99.90;;;;;;5019405;28;20038;-92
2022/09/07 06:52:24;;;;;;;83.47;36.42;;;17.30;99.90;;;;;;5004638;28;20072;-91
2022/09/07 06:54:50;;;;;;;72.40;37.08;;;17.30;99.90;;;;;;4971430;28;20053;-91
2022/09/07 06:57:18;;;;;;;93.53;39.33;;;17.30;99.90;;;;;;5019898;28;20499;-92
2022/09/07 06:59:44;;;;;;;88.95;40.13;;;17.30;99.90;;;;;;4971917;28;20388;-93
2022/09/07 07:02:13;;;;;;;44.78;31.58;;;17.20;99.90;;;;;;4987232;28;20049;-93
2022/09/07 07:04:39;;;;;;;57.08;33.58;;;17.20;99.90;;;;;;5002986;28;20478;-91
2022/09/07 07:07:05;;;;;;;69.25;36.28;;;17.20;99.90;;;;;;5020405;28;20049;-94
2022/09/07 07:09:31;;;;;;;77.03;37.45;;;17.10;99.90;;;;;;5020007;28;20517;-91
2022/09/07 07:11:56;;;;;;;71.40;35.88;;;17.10;99.90;;;;;;5004808;28;20057;-93
2022/09/07 07:14:22;;;;;;;59.45;31.15;;;17.10;99.90;;;;;;5004733;28;20117;-93
2022/09/07 07:16:48;;;;;;;56.40;31.77;;;17.10;99.90;;;;;;4974679;28;20491;-95
2022/09/07 07:19:17;;;;;;;57.47;34.08;;;17.20;99.90;;;;;;4996557;28;20085;-95
2022/09/07 07:21:43;;;;;;;64.85;34.83;;;17.20;99.90;;;;;;5028043;28;20494;-94
2022/09/07 07:24:08;;;;;;;39.60;28.88;;;17.20;99.90;;;;;;5043201;28;20102;-94
2022/09/07 07:26:34;;;;;;;48.53;30.45;;;17.20;99.90;;;;;;5043923;28;20124;-92
2022/09/07 07:29:00;;;;;;;72.57;35.45;;;17.20;99.90;;;;;;5047978;28;20046;-94
2022/09/07 07:31:26;;;;;;;69.70;34.58;;;17.30;99.90;;;;;;5029770;28;20116;-94
2022/09/07 07:33:52;;;;;;;38.05;26.73;;;17.30;99.90;;;;;;5006893;28;20080;-95
2022/09/07 07:36:22;;;;;;;67.57;33.90;;;17.30;99.90;;;;;;5008871;28;20049;-92
2022/09/07 07:38:50;;;;;;;51.45;31.33;;;17.30;99.90;;;;;;5025675;28;20053;-93
2022/09/07 07:41:18;;;;;;;54.08;30.48;;;17.30;99.90;;;;;;5040020;28;20049;-92
2022/09/07 07:43:45;;;;;;;34.95;23.20;;;17.30;99.90;;;;;;5042072;28;20056;-94
2022/09/07 07:46:15;;;;;;;53.42;31.83;;;17.30;99.90;;;;;;5024344;28;20103;-95
2022/09/07 07:48:41;;;;;;;41.28;27.08;;;17.40;99.90;;;;;;5007104;28;20061;-95
2022/09/07 07:51:10;;;;;;;32.97;24.98;;;17.50;99.90;;;;;;5023727;28;20042;-94
2022/09/07 07:53:37;;;;;;;34.40;25.25;;;17.60;99.90;;;;;;5022609;28;20046;-94
2022/09/07 07:56:04;;;;;;;38.72;26.98;;;17.60;99.90;;;;;;5020545;28;20041;-93
2022/09/07 07:58:32;;;;;;;25.23;19.30;;;17.60;99.90;;;;;;5041247;28;20029;-93
2022/09/07 08:01:12;;;;;;;32.08;25.13;;;17.70;99.90;;;;;;5043755;28;20404;-96
2022/09/07 08:03:39;;;;;;;25.77;21.00;;;17.70;99.90;;;;;;5021371;28;20045;-91
2022/09/07 08:06:10;;;;;;;32.20;23.08;;;17.80;99.90;;;;;;5036275;28;20394;-94
2022/09/07 08:08:37;;;;;;;30.42;22.77;;;17.80;99.90;;;;;;5037527;28;20061;-95
2022/09/07 08:11:12;;;;;;;34.63;24.17;;;17.80;99.90;;;;;;5018735;28;20049;-93
2022/09/07 08:13:40;;;;;;;26.67;21.55;;;17.80;99.90;;;;;;5019383;28;20049;-95
2022/09/07 08:16:07;;;;;;;25.85;19.10;;;17.90;99.90;;;;;;5042064;28;20462;-94
2022/09/07 08:18:33;;;;;;;26.63;22.60;;;18.00;99.90;;;;;;5002858;28;20072;-92
2022/09/07 08:21:01;;;;;;;23.67;19.00;;;18.10;99.90;;;;;;5036165;28;20045;-93
2022/09/07 08:23:27;;;;;;;22.48;17.30;;;18.20;99.90;;;;;;5003325;28;20680;-94
2022/09/07 08:25:55;;;;;;;21.60;18.13;;;18.20;99.90;;;;;;5036843;28;20514;-95
2022/09/07 08:28:22;;;;;;;25.80;20.88;;;18.30;99.90;;;;;;5002346;28;20049;-95
2022/09/07 08:30:48;;;;;;;25.55;20.05;;;18.40;99.90;;;;;;5036116;28;20049;-92
2022/09/07 08:33:14;;;;;;;23.33;19.33;;;18.40;99.90;;;;;;5035699;28;20418;-94
2022/09/07 08:35:40;;;;;;;27.15;20.88;;;18.50;99.90;;;;;;5002004;28;20136;-94
2022/09/07 08:38:06;;;;;;;15.77;12.43;;;18.70;99.90;;;;;;5020870;28;20453;-95
2022/09/07 08:40:35;;;;;;;24.55;17.85;;;18.80;99.90;;;;;;5022225;28;20045;-95
2022/09/07 08:43:24;;;;;;;18.95;15.15;;;18.90;99.90;;;;;;5038994;28;20107;-94
2022/09/07 08:45:53;;;;;;;20.45;17.45;;;18.90;99.90;;;;;;5019049;28;20095;-93
2022/09/07 08:48:26;;;;;;;21.58;18.45;;;18.90;99.90;;;;;;5002316;28;20411;-91
2022/09/07 08:50:59;;;;;;;19.08;17.13;;;18.90;99.90;;;;;;5017399;28;20056;-92
2022/09/07 08:53:25;;;;;;;21.52;18.00;;;19.00;99.90;;;;;;5017409;28;20218;-92
2022/09/07 08:55:59;;;;;;;19.08;16.70;;;19.10;99.90;;;;;;5034174;28;20077;-91
2022/09/07 08:58:45;;;;;;;15.45;13.65;;;19.30;99.90;;;;;;5018525;28;20052;-93
2022/09/07 09:01:12;;;;;;;18.15;15.55;;;19.40;99.90;;;;;;5017676;28;20395;-90
2022/09/07 09:03:40;;;;;;;13.35;11.63;;;19.50;99.90;;;;;;5034962;28;20053;-94
2022/09/07 09:06:17;;;;;;;18.35;14.48;;;19.60;99.90;;;;;;5017439;28;20061;-90
2022/09/07 09:08:52;;;;;;;16.35;13.75;;;19.70;99.90;;;;;;5017262;28;20072;-90
2022/09/07 09:11:51;;;;;;;16.40;13.70;;;19.70;99.90;;;;;;5001077;28;20041;-91
2022/09/07 09:14:22;;;;;;;14.05;12.20;;;19.60;99.90;;;;;;5016923;28;20056;-93
2022/09/07 09:16:57;;;;;;;14.90;13.40;;;19.50;99.90;;;;;;5000798;28;20049;-93
2022/09/07 09:19:36;;;;;;;13.38;11.73;;;19.60;99.90;;;;;;5033535;28;20491;-94
2022/09/07 09:22:09;;;;;;;15.60;13.05;;;19.90;99.90;;;;;;5034440;28;20053;-90
2022/09/07 09:24:39;;;;;;;15.63;12.75;;;20.20;99.90;;;;;;5016637;28;20490;-91
2022/09/07 09:27:05;;;;;;;13.65;11.85;;;20.20;99.90;;;;;;5016494;28;20056;-91
2022/09/07 09:29:32;;;;;;;12.73;11.00;;;20.20;99.90;;;;;;5016595;28;20041;-92
2022/09/07 09:31:58;;;;;;;16.50;12.30;;;20.20;99.90;;;;;;5016170;28;20050;-94
2022/09/07 09:34:23;;;;;;;13.75;12.18;;;20.20;99.90;;;;;;5016584;28;20053;-90
2022/09/07 09:36:54;;;;;;;12.77;10.25;;;20.20;99.90;;;;;;5016691;28;20053;-93
2022/09/07 09:39:28;;;;;;;8.80;7.57;;;20.30;99.90;;;;;;5000878;28;20124;-96
2022/09/07 09:42:15;;;;;;;12.10;10.82;;;20.50;99.90;;;;;;5016545;28;20119;-90
2022/09/07 09:44:42;;;;;;;12.23;9.70;;;20.50;99.90;;;;;;5016393;28;20056;-89
2022/09/07 09:47:37;;;;;;;12.90;10.87;;;20.50;99.90;;;;;;5016430;28;20536;-87
2022/09/07 09:50:18;;;;;;;10.57;9.55;;;20.30;99.90;;;;;;5012916;28;20084;-88
2022/09/07 09:52:45;;;;;;;11.80;9.93;;;20.30;99.90;;;;;;5015887;28;20085;-91
2022/09/07 09:55:39;;;;;;;9.95;8.82;;;20.30;99.90;;;;;;4999436;28;20081;-88
2022/09/07 09:58:32;;;;;;;10.68;8.90;;;20.20;99.90;;;;;;5031389;28;20057;-90
2022/09/07 10:01:04;;;;;;;10.07;8.05;;;20.20;99.90;;;;;;5016159;28;20053;-88
2022/09/07 10:03:31;;;;;;;11.48;8.52;;;20.10;99.90;;;;;;5016289;28;20046;-89
2022/09/07 10:05:58;;;;;;;9.82;7.70;;;20.20;99.90;;;;;;4999604;28;20458;-90
2022/09/07 10:08:29;;;;;;;9.57;8.38;;;20.20;99.90;;;;;;5015856;28;20491;-90
2022/09/07 10:11:04;;;;;;;11.02;8.77;;;20.30;99.90;;;;;;5015942;28;20052;-89
2022/09/07 10:13:35;;;;;;;10.40;9.02;;;20.30;99.90;;;;;;5033499;28;20390;-88
2022/09/07 10:16:05;;;;;;;11.15;8.48;;;20.50;99.90;;;;;;5015888;28;20125;-88
2022/09/07 10:18:55;;;;;;;10.70;7.72;;;20.70;99.90;;;;;;5016289;28;20043;-87
2022/09/07 10:21:26;;;;;;;8.85;7.50;;;20.80;99.90;;;;;;5008943;28;20454;-89
2022/09/07 10:23:56;;;;;;;12.23;7.57;;;20.80;99.90;;;;;;5015821;28;20129;-89
2022/09/07 10:26:34;;;;;;;8.27;7.10;;;20.70;99.90;;;;;;5016222;28;20052;-88
2022/09/07 10:29:15;;;;;;;8.98;6.80;;;20.80;99.90;;;;;;5016217;28;20060;-87
2022/09/07 10:32:05;;;;;;;7.85;6.75;;;20.90;99.90;;;;;;5016213;28;20045;-87
2022/09/07 10:34:51;;;;;;;8.20;6.32;;;21.00;99.90;;;;;;5015923;28;20060;-88
2022/09/07 10:37:38;;;;;;;6.68;5.75;;;21.30;99.90;;;;;;5033154;28;20487;-89
2022/09/07 10:40:31;;;;;;;7.45;5.30;;;22.00;99.90;;;;;;5033601;28;20411;-90
2022/09/07 10:43:16;;;;;;;5.47;4.47;;;22.60;99.90;;;;;;5015814;28;20041;-90
2022/09/07 10:46:05;;;;;;;5.80;4.75;;;23.50;99.90;;;;;;5015848;28;20088;-90
2022/09/07 10:48:56;;;;;;;4.35;2.83;;;24.40;99.90;;;;;;5033288;28;20045;-90
2022/09/07 10:51:28;;;;;;;;;;;24.40;99.90;;;;;;5015824;28;20045;-92
2022/09/07 10:54:29;;;;;;;7.05;4.22;;;24.40;99.90;;;;;;5015711;28;19975;-91
2022/09/07 10:56:58;;;;;;;5.60;4.22;;;24.10;99.90;;;;;;4950340;28;20071;-90
2022/09/07 10:59:28;;;;;;;6.28;4.22;;;24.10;99.90;;;;;;5017019;28;20463;-90
2022/09/07 11:01:59;;;;;;;5.03;4.40;;;24.00;99.90;;;;;;5018003;28;20045;-90
2022/09/07 11:04:58;;;;;;;7.18;4.55;;;23.90;99.90;;;;;;5019480;28;20084;-91
2022/09/07 11:07:24;;;;;;;4.90;4.40;;;23.60;99.90;;;;;;5019534;28;20042;-90
2022/09/07 11:10:14;;;;;;;7.60;4.15;;;23.60;99.90;;;;;;5018667;28;20095;-90
2022/09/07 11:12:42;;;;;;;4.00;3.70;;;24.50;99.90;;;;;;5000312;28;20053;-89
2022/09/07 11:15:23;;;;;;;3.97;3.50;;;25.40;99.90;;;;;;5018282;28;20041;-92
2022/09/07 11:18:20;;;;;;;4.03;3.55;;;26.00;99.90;;;;;;5033912;28;20060;-90
2022/09/07 11:20:59;;;;;;;6.80;3.92;;;26.70;99.90;;;;;;5025189;28;20049;-88
2022/09/07 11:23:51;;;;;;;4.43;3.75;;;27.20;99.90;;;;;;5037265;28;20053;-89
2022/09/07 11:26:27;;;;;;;6.22;3.92;;;27.90;99.90;;;;;;5002761;28;20388;-90
2022/09/07 11:28:59;;;;;;;5.03;3.33;;;28.10;99.90;;;;;;5003552;28;20099;-88
2022/09/07 11:31:44;;;;;;;4.22;2.97;;;28.10;99.90;;;;;;5036451;28;20395;-89
2022/09/07 11:34:29;;;;;;;5.10;3.42;;;28.40;99.90;;;;;;5003267;28;20095;-90
2022/09/07 11:37:06;;;;;;;5.05;2.78;;;28.50;99.90;;;;;;5040407;28;20045;-91
2022/09/07 11:39:39;;;;;;;3.75;3.17;;;28.50;99.90;;;;;;5021363;28;20041;-91
2022/09/07 11:42:19;;;;;;;6.82;3.00;;;28.60;99.90;;;;;;5004198;28;20046;-91
2022/09/07 11:44:54;;;;;;;4.95;3.00;;;28.60;99.90;;;;;;5037728;28;20049;-89
2022/09/07 11:47:46;;;;;;;4.82;3.20;;;28.50;99.90;;;;;;5018395;28;20081;-90
2022/09/07 11:50:15;;;;;;;4.15;3.17;;;28.30;99.90;;;;;;5036162;28;20037;-92
2022/09/07 11:52:52;;;;;;;4.45;2.60;;;28.20;99.90;;;;;;5018515;28;20050;-92
2022/09/07 11:55:27;;;;;;;9.90;3.50;;;28.50;99.90;;;;;;5037551;28;20052;-92
2022/09/07 11:58:14;;;;;;;4.35;2.90;;;29.00;99.90;;;;;;5035893;28;20084;-91
2022/09/07 12:01:08;;;;;;;5.78;3.47;;;29.40;98.60;;;;;;5002653;28;20053;-92
2022/09/07 12:04:02;;;;;;;4.13;2.83;;;29.80;94.90;;;;;;5018607;28;20128;-90
2022/09/07 12:06:31;;;;;;;4.90;3.10;;;30.10;90.80;;;;;;5001509;28;20406;-91
2022/09/07 12:09:11;;;;;;;3.67;3.30;;;30.30;80.20;;;;;;5018837;28;20084;-92
2022/09/07 12:12:06;;;;;;;5.25;2.95;;;30.20;91.40;;;;;;5018856;28;20041;-92
2022/09/07 12:14:56;;;;;;;2.88;2.40;;;30.10;84.20;;;;;;4979249;28;20045;-89
2022/09/07 12:17:43;;;;;;;3.55;2.70;;;30.20;91.00;;;;;;5017918;28;20044;-91
2022/09/07 12:20:17;;;;;;;3.05;2.25;;;29.50;78.60;;;;;;5035551;28;20041;-88
2022/09/07 12:23:05;;;;;;;4.65;2.20;;;28.50;85.20;;;;;;5017730;28;20172;-91
2022/09/07 12:25:34;;;;;;;3.20;2.28;;;27.40;94.20;;;;;;5000842;28;20518;-90
2022/09/07 12:28:00;;;;;;;3.60;2.45;;;26.60;97.10;;;;;;5035396;28;20054;-89
2022/09/07 12:30:26;;;;;;;4.30;2.40;;;26.10;99.90;;;;;;5017462;28;20391;-91
2022/09/07 12:32:55;;;;;;;3.28;1.90;;;26.10;99.90;;;;;;5017731;28;20053;-91
2022/09/07 12:35:36;;;;;;;4.20;2.50;;;26.10;99.90;;;;;;5001343;28;20057;-90
2022/09/07 12:38:17;;;;;;;3.17;2.45;;;26.10;99.90;;;;;;5001387;28;20060;-91
2022/09/07 12:40:56;;;;;;;3.65;2.40;;;26.30;99.90;;;;;;5017578;28;20136;-91
2022/09/07 12:43:22;;;;;;;3.40;2.40;;;26.20;99.50;;;;;;5034960;28;20520;-90
2022/09/07 12:45:50;;;;;;;5.18;2.50;;;25.80;99.90;;;;;;5034501;28;20076;-91
2022/09/07 12:48:18;;;;;;;4.00;2.00;;;25.30;99.90;;;;;;5000763;28;20546;-91
2022/09/07 12:50:59;;;;;;;5.18;2.67;;;24.90;99.90;;;;;;5034424;28;20049;-90
2022/09/07 12:53:46;;;;;;;3.40;2.50;;;24.50;99.90;;;;;;5000846;28;20106;-91
2022/09/07 12:56:19;;;;;;;3.65;2.25;;;24.30;99.90;;;;;;5017368;28;20056;-90
2022/09/07 12:59:03;;;;;;;3.28;2.45;;;24.00;99.90;;;;;;5017283;28;20045;-92